MacKenzie, Canada
Current Conditions -  °F | °C
As of 5:00 AM on Thursday 29 Jan 2015 (Local Time) from CYQT Reporting Station
Overcast Overcast  
Wind Chill: 20°   Ceiling: 2700
Heat Index: 28°   Visibility: 15mi
Dew Point: 25°   Wind: 8mph
Humidity: 86%   Direction: 280°W
Pressure: 29.79"   Gusts: NA
Location:  48.55°N, 88.97°W
Report Text: CYQT 291000Z 28007KT 15SM SCT021 OVC027 M02/M04 A2979 RMK SC3SC5 SLP099
Loading
Personal Weather Stations






























Interactive Weather Map New forecast layout! Learn more

10-Day Weather Forecast

Advertisements
Track Severe Weather on mobile